Terminal Aerodrome Forecast
Issued by NWS San Angelo, TX

Home | Current Version | Previous Version | Text Only | Print | Product List | Glossary On
Versions: 1 2 3 4 5 6 7 8 9 10 11 12 13 14 15
000
FTUS44 KSJT 041340 AAA
TAFABI
TAF AMD
KABI 041340Z 0414/0512 18006KT P6SM VCSH BKN100
     FM041600 18010G15KT P6SM SCT050 SCT250
     FM042200 15008KT P6SM SKC=

USA.gov is the U.S. government's official web portal to all federal, state and local government web resources and services.